AirNav   Pilot Hours Calculator
 
 799 users online  

9TX5 Camp Bullis ALS Airport
San Antonio, Texas, USA

GOING TO SAN ANTONIO?


FAA INFORMATION EFFECTIVE 15 JULY 2021

Location

FAA Identifier: 9TX5
Lat/Long: 29-44-40.7980N 098-32-14.0700W
29-44.679967N 098-32.234500W
29.7446661,-98.5372417
(estimated)
Elevation: 1158 ft. / 353 m (estimated)
Variation: 07E (1985)
Time zone: UTC -5 (UTC -6 during Standard Time)
Zip code: 78260

Airport Operations

Airport use: Private use. Permission required prior to landing
Control tower: no
ARTCC: HOUSTON CENTER
FSS: SAN ANGELO FLIGHT SERVICE STATION
Attendance: UNATNDD
Segmented circle: no

Airport Communications

WX AWOS-3 at 5C1 (8 nm W): 118.725 (830-755-9099)
WX ASOS at SAT (13 nm S): PHONE 210-805-5583

Nearby radio navigation aids

VOR radial/distance  VOR name  Freq  Var
SATr319/7.2SAN ANTONIO VORTAC116.8008E
RNDr311/18.9RANDOLPH VORTAC112.3005E
STVr154/29.1STONEWALL VORTAC113.8008E
SSFr341/(29.6)STINSON VOR108.4009E
CSIr099/36.8CENTER POINT VORTAC117.5008E

 
NDB name  Hdg/Dist  Freq  Var  ID
ALAMO008/8.436804EAN .- -.

Airport Services

Runway Information

Runway 10/28

Dimensions: 3600 x 60 ft. / 1097 x 18 m
Surface: dirt
RUNWAY 10  RUNWAY 28
Traffic pattern: leftleft

Airport Ownership and Management from official FAA records

Ownership: U.S. Army
Owner: U.S. ARMY

Additional Remarks

PPR DSN 421-7510/7790 C210-295-7510/7790.
FOR CD CTC SAN ANTONIO APCH AT 210-805-5516.

Instrument Procedures

There are no published instrument procedures at 9TX5.

Some nearby airports with instrument procedures:

5C1 - Boerne Stage Field Airport (8 nm W)
KSAT - San Antonio International Airport (13 nm S)
KRND - Randolph Air Force Base (19 nm SE)
KSKF - Kelly Field Airport (22 nm S)
KSSF - Stinson Municipal Airport (25 nm S)
 
Loc | Ops | Rwys | IFR | FBO | Links
Com | Nav | Svcs | Stats | Notes
Area around 9TX5 (Camp Bullis ALS Airport)
 
Road maps at: MapQuest Bing Google
 
Aerial photo
No photo
 
Sectional chart

 
Airport distance calculator
Flying to Camp Bullis ALS Airport? Find the distance to fly.

From to 9TX5

Sunrise and sunset
Times for 23-Jul-2021
 Local
(UTC-5)
 Zulu
(UTC)
Morning civil twilight06:2311:23
Sunrise06:4911:49
Sunset20:3201:32
Evening civil twilight20:5801:58

Current date and time
Zulu (UTC)  24-Jul-2021 03:33:44
Local (UTC-5)  23-Jul-2021 22:33:44
 
METAR
K5C1 
8nm W 
240315Z AUTO 16007KT 10SM CLR 26/21 A3007 RMK AO1
KSAT 
13nm S 
240251Z 14011KT 10SM FEW250 28/24 A3003 RMK AO2 SLP150 T02830239 53001 $
KRND 
20nm SE 
240256Z AUTO 15010KT 10SM CLR 27/24 A3002 RMK AO2 SLP157 T02680242 53002
TAF
KSAT 
13nm S 
231740Z 2318/2424 17013G23KT P6SM SCT028 SCT250 FM240900 16007KT P6SM BKN012 FM241600 17010KT P6SM BKN035
KRND 
20nm SE 
231557Z 2316/2422 17012G20KT 9999 FEW030 QNH3004INS TEMPO 2317/2400 18012G25KT BECMG 2401/2402 16009KT 9999 SKC QNH3001INS BECMG 2408/2409 16007KT 9999 BKN004 BKN011 QNH3003INS BECMG 2415/2416 16009KT 9999 SCT004 BKN011 QNH3006INS BECMG 2417/2418 17009KT 9999 FEW030 QNH2999INS TX34/2321Z TN24/2412Z LAST NO AMDS AFT 2401 NEXT 2411
NOTAMs
Click for the latest NOTAMs
NOTAMs are issued by the DoD/FAA and will open in a separate window not controlled by AirNav.

 

 
 

Would you like to see your business listed on this page?

 If your business provides an interesting product or service to pilots, flight crews, aircraft, or users of the Camp Bullis ALS Airport, you should consider listing it here.  To start the listing process, click on the button below
 
Add a business
 

Other Pages about Camp Bullis ALS Airport

Update a link
 
Copyright © AirNav, LLC. All rights reserved. Privacy Policy  Contact